sensor_id;sensor_type;location;lat;lon;timestamp;P1;durP1;ratioP1;P2;durP2;ratioP2
16387;SDS011;8303;53.446;9.988;2022-08-19T04:45:54;972.67;;;883.28;;
16387;SDS011;8303;53.446;9.988;2022-08-19T04:48:22;1006.85;;;908.33;;
16387;SDS011;8303;53.446;9.988;2022-08-19T04:50:53;1010.30;;;911.17;;
16387;SDS011;8303;53.446;9.988;2022-08-19T04:53:24;996.33;;;902.05;;
16387;SDS011;8303;53.446;9.988;2022-08-19T04:55:53;993.50;;;897.85;;
16387;SDS011;8303;53.446;9.988;2022-08-19T04:58:21;1018.50;;;921.05;;
16387;SDS011;8303;53.446;9.988;2022-08-19T05:00:48;1022.00;;;919.63;;
16387;SDS011;8303;53.446;9.988;2022-08-19T05:03:16;1057.82;;;951.58;;
16387;SDS011;8303;53.446;9.988;2022-08-19T05:05:43;1036.90;;;932.88;;
16387;SDS011;8303;53.446;9.988;2022-08-19T05:08:13;1034.68;;;931.58;;
16387;SDS011;8303;53.446;9.988;2022-08-19T05:13:11;1029.87;;;929.43;;
16387;SDS011;8303;53.446;9.988;2022-08-19T05:15:39;1007.50;;;909.70;;
16387;SDS011;8303;53.446;9.988;2022-08-19T05:18:06;972.08;;;881.47;;
16387;SDS011;8303;53.446;9.988;2022-08-19T05:20:54;988.05;;;894.45;;
16387;SDS011;8303;53.446;9.988;2022-08-19T05:23:41;974.30;;;879.70;;
16387;SDS011;8303;53.446;9.988;2022-08-19T05:26:09;1002.28;;;906.42;;
16387;SDS011;8303;53.446;9.988;2022-08-19T05:28:37;1024.13;;;921.60;;
16387;SDS011;8303;53.446;9.988;2022-08-19T05:31:04;988.47;;;894.83;;
16387;SDS011;8303;53.446;9.988;2022-08-19T05:33:31;955.10;;;867.75;;
16387;SDS011;8303;53.446;9.988;2022-08-19T05:36:00;1013.00;;;915.25;;
16387;SDS011;8303;53.446;9.988;2022-08-19T05:38:27;1056.13;;;948.83;;
16387;SDS011;8303;53.446;9.988;2022-08-19T05:40:55;1037.97;;;932.70;;
16387;SDS011;8303;53.446;9.988;2022-08-19T05:43:22;1061.33;;;946.90;;
16387;SDS011;8303;53.446;9.988;2022-08-19T05:45:49;1067.03;;;953.65;;
16387;SDS011;8303;53.446;9.988;2022-08-19T05:48:16;984.35;;;887.55;;
16387;SDS011;8303;53.446;9.988;2022-08-19T05:50:45;1072.22;;;962.22;;
16387;SDS011;8303;53.446;9.988;2022-08-19T05:53:16;1054.30;;;943.17;;
16387;SDS011;8303;53.446;9.988;2022-08-19T05:55:44;1076.25;;;957.92;;
16387;SDS011;8303;53.446;9.988;2022-08-19T05:58:11;1100.65;;;981.72;;
16387;SDS011;8303;53.446;9.988;2022-08-19T06:00:38;1139.07;;;995.97;;
16387;SDS011;8303;53.446;9.988;2022-08-19T06:03:06;1110.70;;;984.03;;
16387;SDS011;8303;53.446;9.988;2022-08-19T06:05:33;1180.68;;;998.92;;
16387;SDS011;8303;53.446;9.988;2022-08-19T06:08:00;1137.65;;;989.55;;
16387;SDS011;8303;53.446;9.988;2022-08-19T06:10:28;1147.93;;;998.60;;
16387;SDS011;8303;53.446;9.988;2022-08-19T06:12:56;1192.97;;;998.83;;
16387;SDS011;8303;53.446;9.988;2022-08-19T06:15:23;1183.07;;;995.83;;
16387;SDS011;8303;53.446;9.988;2022-08-19T06:17:50;1214.93;;;997.35;;
16387;SDS011;8303;53.446;9.988;2022-08-19T06:20:18;1256.45;;;999.90;;
16387;SDS011;8303;53.446;9.988;2022-08-19T06:22:45;1229.63;;;999.45;;
16387;SDS011;8303;53.446;9.988;2022-08-19T06:25:14;1121.25;;;995.83;;
16387;SDS011;8303;53.446;9.988;2022-08-19T06:27:43;1081.88;;;966.70;;
16387;SDS011;8303;53.446;9.988;2022-08-19T06:30:11;1109.70;;;990.33;;
16387;SDS011;8303;53.446;9.988;2022-08-19T06:32:39;1083.18;;;967.15;;
16387;SDS011;8303;53.446;9.988;2022-08-19T06:35:06;1131.72;;;991.65;;
16387;SDS011;8303;53.446;9.988;2022-08-19T06:37:34;1176.38;;;998.75;;
16387;SDS011;8303;53.446;9.988;2022-08-19T06:40:02;1179.47;;;994.55;;
16387;SDS011;8303;53.446;9.988;2022-08-19T06:42:31;1247.05;;;999.90;;
16387;SDS011;8303;53.446;9.988;2022-08-19T06:44:59;1274.17;;;999.90;;
16387;SDS011;8303;53.446;9.988;2022-08-19T06:47:29;1374.77;;;999.90;;
16387;SDS011;8303;53.446;9.988;2022-08-19T06:49:56;1386.82;;;999.90;;
16387;SDS011;8303;53.446;9.988;2022-08-19T06:52:27;1323.40;;;999.90;;
16387;SDS011;8303;53.446;9.988;2022-08-19T06:54:54;1253.00;;;999.90;;
16387;SDS011;8303;53.446;9.988;2022-08-19T06:57:21;1428.57;;;999.90;;
16387;SDS011;8303;53.446;9.988;2022-08-19T06:59:48;1219.73;;;999.90;;
16387;SDS011;8303;53.446;9.988;2022-08-19T07:02:17;1268.70;;;999.90;;
16387;SDS011;8303;53.446;9.988;2022-08-19T07:04:45;1312.60;;;999.90;;
16387;SDS011;8303;53.446;9.988;2022-08-19T07:07:14;1281.20;;;999.90;;
16387;SDS011;8303;53.446;9.988;2022-08-19T07:09:42;1314.43;;;999.90;;
16387;SDS011;8303;53.446;9.988;2022-08-19T07:12:10;1271.55;;;999.58;;
16387;SDS011;8303;53.446;9.988;2022-08-19T07:14:40;1238.68;;;999.90;;
16387;SDS011;8303;53.446;9.988;2022-08-19T07:17:08;1247.80;;;999.00;;
16387;SDS011;8303;53.446;9.988;2022-08-19T07:19:39;1138.63;;;997.67;;
16387;SDS011;8303;53.446;9.988;2022-08-19T07:22:07;1107.05;;;991.60;;
16387;SDS011;8303;53.446;9.988;2022-08-19T07:24:36;1084.80;;;975.17;;
16387;SDS011;8303;53.446;9.988;2022-08-19T07:27:04;1041.28;;;943.92;;
16387;SDS011;8303;53.446;9.988;2022-08-19T07:29:33;980.30;;;896.75;;
16387;SDS011;8303;53.446;9.988;2022-08-19T07:32:01;924.08;;;840.83;;
16387;SDS011;8303;53.446;9.988;2022-08-19T07:34:29;917.90;;;841.53;;
16387;SDS011;8303;53.446;9.988;2022-08-19T07:37:00;841.63;;;774.30;;
16387;SDS011;8303;53.446;9.988;2022-08-19T07:39:30;816.75;;;749.75;;
16387;SDS011;8303;53.446;9.988;2022-08-19T07:41:58;817.88;;;753.78;;
16387;SDS011;8303;53.446;9.988;2022-08-19T07:44:28;843.92;;;777.08;;
16387;SDS011;8303;53.446;9.988;2022-08-19T07:46:56;858.60;;;790.33;;
16387;SDS011;8303;53.446;9.988;2022-08-19T07:49:25;868.78;;;797.70;;
16387;SDS011;8303;53.446;9.988;2022-08-19T07:51:53;847.38;;;780.33;;
16387;SDS011;8303;53.446;9.988;2022-08-19T07:54:23;875.33;;;803.50;;
16387;SDS011;8303;53.446;9.988;2022-08-19T07:56:52;847.75;;;778.95;;
16387;SDS011;8303;53.446;9.988;2022-08-19T07:59:19;816.47;;;752.83;;
16387;SDS011;8303;53.446;9.988;2022-08-19T08:01:47;841.08;;;776.55;;
16387;SDS011;8303;53.446;9.988;2022-08-19T08:04:16;808.38;;;745.63;;
16387;SDS011;8303;53.446;9.988;2022-08-19T08:07:00;757.90;;;701.90;;
16387;SDS011;8303;53.446;9.988;2022-08-19T08:09:47;744.22;;;689.55;;
16387;SDS011;8303;53.446;9.988;2022-08-19T08:12:16;676.75;;;626.95;;
16387;SDS011;8303;53.446;9.988;2022-08-19T08:14:46;679.63;;;630.20;;
16387;SDS011;8303;53.446;9.988;2022-08-19T08:17:14;683.88;;;634.03;;
16387;SDS011;8303;53.446;9.988;2022-08-19T08:19:46;743.47;;;687.40;;
16387;SDS011;8303;53.446;9.988;2022-08-19T08:22:16;647.70;;;601.28;;
16387;SDS011;8303;53.446;9.988;2022-08-19T08:25:03;675.08;;;625.88;;
16387;SDS011;8303;53.446;9.988;2022-08-19T08:27:31;685.15;;;634.72;;
16387;SDS011;8303;53.446;9.988;2022-08-19T08:30:01;714.03;;;660.92;;
16387;SDS011;8303;53.446;9.988;2022-08-19T08:32:29;687.65;;;636.83;;
16387;SDS011;8303;53.446;9.988;2022-08-19T08:34:56;640.72;;;595.33;;
16387;SDS011;8303;53.446;9.988;2022-08-19T08:37:24;661.80;;;614.47;;
16387;SDS011;8303;53.446;9.988;2022-08-19T08:39:51;600.80;;;558.80;;
16387;SDS011;8303;53.446;9.988;2022-08-19T08:42:22;572.35;;;532.55;;
16387;SDS011;8303;53.446;9.988;2022-08-19T08:44:54;570.72;;;531.00;;
16387;SDS011;8303;53.446;9.988;2022-08-19T08:47:27;568.13;;;529.10;;
16387;SDS011;8303;53.446;9.988;2022-08-19T08:50:00;542.47;;;505.45;;
16387;SDS011;8303;53.446;9.988;2022-08-19T08:52:31;550.78;;;512.20;;
16387;SDS011;8303;53.446;9.988;2022-08-19T08:55:03;594.60;;;552.80;;
16387;SDS011;8303;53.446;9.988;2022-08-19T08:57:39;520.80;;;485.50;;
16387;SDS011;8303;53.446;9.988;2022-08-19T09:00:21;508.15;;;474.45;;
16387;SDS011;8303;53.446;9.988;2022-08-19T09:02:51;450.58;;;420.85;;
16387;SDS011;8303;53.446;9.988;2022-08-19T09:05:19;614.83;;;570.28;;
16387;SDS011;8303;53.446;9.988;2022-08-19T09:07:49;686.05;;;634.03;;
16387;SDS011;8303;53.446;9.988;2022-08-19T09:10:25;665.28;;;616.05;;
16387;SDS011;8303;53.446;9.988;2022-08-19T09:12:59;655.42;;;606.20;;
16387;SDS011;8303;53.446;9.988;2022-08-19T09:15:34;674.60;;;623.92;;
16387;SDS011;8303;53.446;9.988;2022-08-19T09:18:06;694.38;;;643.88;;
16387;SDS011;8303;53.446;9.988;2022-08-19T09:20:34;683.42;;;633.08;;
16387;SDS011;8303;53.446;9.988;2022-08-19T09:23:01;710.25;;;657.88;;
16387;SDS011;8303;53.446;9.988;2022-08-19T09:25:29;624.90;;;580.08;;
16387;SDS011;8303;53.446;9.988;2022-08-19T09:27:58;617.53;;;574.42;;
16387;SDS011;8303;53.446;9.988;2022-08-19T09:30:28;593.53;;;552.92;;
16387;SDS011;8303;53.446;9.988;2022-08-19T09:32:58;571.75;;;532.33;;
16387;SDS011;8303;53.446;9.988;2022-08-19T09:35:27;565.03;;;526.33;;
16387;SDS011;8303;53.446;9.988;2022-08-19T09:37:58;652.72;;;606.78;;
16387;SDS011;8303;53.446;9.988;2022-08-19T09:40:26;642.70;;;596.55;;
16387;SDS011;8303;53.446;9.988;2022-08-19T09:42:54;585.17;;;545.15;;
16387;SDS011;8303;53.446;9.988;2022-08-19T09:45:23;590.35;;;549.13;;
16387;SDS011;8303;53.446;9.988;2022-08-19T09:47:51;668.08;;;619.85;;
16387;SDS011;8303;53.446;9.988;2022-08-19T09:50:20;701.55;;;648.90;;
16387;SDS011;8303;53.446;9.988;2022-08-19T09:52:48;746.85;;;689.78;;
16387;SDS011;8303;53.446;9.988;2022-08-19T09:55:17;785.13;;;724.42;;
16387;SDS011;8303;53.446;9.988;2022-08-19T09:57:44;734.38;;;677.65;;
16387;SDS011;8303;53.446;9.988;2022-08-19T10:00:12;710.35;;;657.38;;
16387;SDS011;8303;53.446;9.988;2022-08-19T10:02:41;772.00;;;714.42;;
16387;SDS011;8303;53.446;9.988;2022-08-19T10:05:08;793.08;;;724.35;;
16387;SDS011;8303;53.446;9.988;2022-08-19T10:07:52;659.13;;;611.47;;
16387;SDS011;8303;53.446;9.988;2022-08-19T10:10:19;693.30;;;641.95;;
16387;SDS011;8303;53.446;9.988;2022-08-19T10:12:47;757.03;;;700.47;;
16387;SDS011;8303;53.446;9.988;2022-08-19T10:15:14;710.10;;;659.20;;
16387;SDS011;8303;53.446;9.988;2022-08-19T10:17:43;720.83;;;668.33;;
16387;SDS011;8303;53.446;9.988;2022-08-19T10:20:12;674.35;;;628.00;;
16387;SDS011;8303;53.446;9.988;2022-08-19T10:22:39;639.05;;;594.60;;
16387;SDS011;8303;53.446;9.988;2022-08-19T10:25:07;661.10;;;616.03;;
16387;SDS011;8303;53.446;9.988;2022-08-19T10:27:35;670.67;;;623.13;;
16387;SDS011;8303;53.446;9.988;2022-08-19T10:30:03;744.42;;;686.92;;
16387;SDS011;8303;53.446;9.988;2022-08-19T10:32:31;725.25;;;672.35;;
16387;SDS011;8303;53.446;9.988;2022-08-19T10:35:00;734.45;;;681.03;;
16387;SDS011;8303;53.446;9.988;2022-08-19T10:37:27;669.53;;;622.53;;
16387;SDS011;8303;53.446;9.988;2022-08-19T10:39:55;681.72;;;633.40;;
16387;SDS011;8303;53.446;9.988;2022-08-19T10:42:22;719.67;;;668.75;;
16387;SDS011;8303;53.446;9.988;2022-08-19T10:44:49;748.63;;;692.70;;
16387;SDS011;8303;53.446;9.988;2022-08-19T10:47:21;777.65;;;718.28;;
16387;SDS011;8303;53.446;9.988;2022-08-19T10:49:48;821.13;;;757.08;;
16387;SDS011;8303;53.446;9.988;2022-08-19T10:52:34;782.25;;;723.40;;
16387;SDS011;8303;53.446;9.988;2022-08-19T10:55:02;820.50;;;755.75;;
16387;SDS011;8303;53.446;9.988;2022-08-19T10:57:49;807.22;;;743.10;;
16387;SDS011;8303;53.446;9.988;2022-08-19T11:00:18;898.90;;;823.35;;
16387;SDS011;8303;53.446;9.988;2022-08-19T11:02:45;984.45;;;895.15;;
16387;SDS011;8303;53.446;9.988;2022-08-19T11:05:13;945.55;;;862.10;;
16387;SDS011;8303;53.446;9.988;2022-08-19T11:07:43;977.53;;;889.83;;
16387;SDS011;8303;53.446;9.988;2022-08-19T11:10:12;999.00;;;907.05;;
16387;SDS011;8303;53.446;9.988;2022-08-19T11:12:44;972.88;;;885.17;;
16387;SDS011;8303;53.446;9.988;2022-08-19T11:15:12;912.10;;;833.75;;
16387;SDS011;8303;53.446;9.988;2022-08-19T11:17:40;835.35;;;769.88;;
16387;SDS011;8303;53.446;9.988;2022-08-19T11:20:09;797.67;;;737.67;;
16387;SDS011;8303;53.446;9.988;2022-08-19T11:22:37;762.58;;;706.80;;
16387;SDS011;8303;53.446;9.988;2022-08-19T11:25:06;856.92;;;789.30;;
16387;SDS011;8303;53.446;9.988;2022-08-19T11:27:36;853.63;;;785.83;;
16387;SDS011;8303;53.446;9.988;2022-08-19T11:30:08;897.92;;;820.80;;
16387;SDS011;8303;53.446;9.988;2022-08-19T11:32:36;909.30;;;832.35;;
16387;SDS011;8303;53.446;9.988;2022-08-19T11:35:03;924.35;;;846.47;;
16387;SDS011;8303;53.446;9.988;2022-08-19T11:37:30;856.25;;;789.08;;
16387;SDS011;8303;53.446;9.988;2022-08-19T11:40:02;812.90;;;751.38;;
16387;SDS011;8303;53.446;9.988;2022-08-19T11:42:32;685.65;;;638.50;;
16387;SDS011;8303;53.446;9.988;2022-08-19T11:45:17;532.50;;;498.05;;
16387;SDS011;8303;53.446;9.988;2022-08-19T11:47:44;557.80;;;521.88;;
16387;SDS011;8303;53.446;9.988;2022-08-19T11:50:12;649.50;;;605.42;;
16387;SDS011;8303;53.446;9.988;2022-08-19T11:52:42;648.58;;;604.85;;
16387;SDS011;8303;53.446;9.988;2022-08-19T11:55:10;702.85;;;654.33;;
16387;SDS011;8303;53.446;9.988;2022-08-19T11:57:39;719.90;;;668.85;;
16387;SDS011;8303;53.446;9.988;2022-08-19T12:00:08;729.03;;;678.55;;
16387;SDS011;8303;53.446;9.988;2022-08-19T12:02:37;711.33;;;662.33;;
16387;SDS011;8303;53.446;9.988;2022-08-19T12:05:04;736.25;;;683.63;;
16387;SDS011;8303;53.446;9.988;2022-08-19T12:07:32;763.28;;;709.08;;
16387;SDS011;8303;53.446;9.988;2022-08-19T12:10:00;713.63;;;663.30;;
16387;SDS011;8303;53.446;9.988;2022-08-19T12:12:27;682.75;;;633.08;;
16387;SDS011;8303;53.446;9.988;2022-08-19T12:14:55;806.97;;;744.40;;
16387;SDS011;8303;53.446;9.988;2022-08-19T12:17:23;809.33;;;748.50;;
16387;SDS011;8303;53.446;9.988;2022-08-19T12:19:51;766.67;;;711.05;;
16387;SDS011;8303;53.446;9.988;2022-08-19T12:22:19;721.78;;;671.55;;
16387;SDS011;8303;53.446;9.988;2022-08-19T12:24:46;658.53;;;613.00;;
16387;SDS011;8303;53.446;9.988;2022-08-19T12:27:15;677.15;;;630.13;;
16387;SDS011;8303;53.446;9.988;2022-08-19T12:29:42;688.35;;;641.38;;
16387;SDS011;8303;53.446;9.988;2022-08-19T12:32:11;641.20;;;598.22;;
16387;SDS011;8303;53.446;9.988;2022-08-19T12:34:38;589.70;;;551.63;;
16387;SDS011;8303;53.446;9.988;2022-08-19T12:37:06;500.80;;;469.65;;
16387;SDS011;8303;53.446;9.988;2022-08-19T12:39:35;519.17;;;485.52;;
16387;SDS011;8303;53.446;9.988;2022-08-19T12:42:03;463.90;;;435.70;;
16387;SDS011;8303;53.446;9.988;2022-08-19T12:44:32;365.65;;;344.23;;
16387;SDS011;8303;53.446;9.988;2022-08-19T12:46:59;311.70;;;294.17;;
16387;SDS011;8303;53.446;9.988;2022-08-19T12:49:29;267.52;;;252.65;;
16387;SDS011;8303;53.446;9.988;2022-08-19T12:51:59;403.95;;;379.67;;
16387;SDS011;8303;53.446;9.988;2022-08-19T12:54:26;426.60;;;401.48;;
16387;SDS011;8303;53.446;9.988;2022-08-19T12:56:53;439.55;;;413.52;;
16387;SDS011;8303;53.446;9.988;2022-08-19T12:59:21;430.83;;;405.42;;
16387;SDS011;8303;53.446;9.988;2022-08-19T13:01:51;345.55;;;325.55;;
16387;SDS011;8303;53.446;9.988;2022-08-19T13:04:18;267.63;;;252.43;;
16387;SDS011;8303;53.446;9.988;2022-08-19T13:06:47;295.67;;;278.70;;
16387;SDS011;8303;53.446;9.988;2022-08-19T13:09:14;465.75;;;437.80;;
16387;SDS011;8303;53.446;9.988;2022-08-19T13:11:42;320.63;;;301.92;;
16387;SDS011;8303;53.446;9.988;2022-08-19T13:14:10;543.22;;;509.52;;
16387;SDS011;8303;53.446;9.988;2022-08-19T13:16:37;499.52;;;468.73;;
16387;SDS011;8303;53.446;9.988;2022-08-19T13:19:05;531.67;;;498.83;;
16387;SDS011;8303;53.446;9.988;2022-08-19T13:21:32;518.20;;;485.67;;
16387;SDS011;8303;53.446;9.988;2022-08-19T13:24:01;503.90;;;473.00;;
16387;SDS011;8303;53.446;9.988;2022-08-19T13:26:28;487.08;;;457.17;;
16387;SDS011;8303;53.446;9.988;2022-08-19T13:28:55;396.27;;;372.35;;
16387;SDS011;8303;53.446;9.988;2022-08-19T13:31:40;466.95;;;437.88;;
16387;SDS011;8303;53.446;9.988;2022-08-19T13:34:26;425.67;;;399.90;;
16387;SDS011;8303;53.446;9.988;2022-08-19T13:36:55;425.95;;;400.48;;
16387;SDS011;8303;53.446;9.988;2022-08-19T13:39:24;467.92;;;439.05;;
16387;SDS011;8303;53.446;9.988;2022-08-19T13:41:52;527.95;;;494.85;;
16387;SDS011;8303;53.446;9.988;2022-08-19T13:44:19;415.63;;;391.00;;
16387;SDS011;8303;53.446;9.988;2022-08-19T13:46:47;436.30;;;410.38;;
16387;SDS011;8303;53.446;9.988;2022-08-19T13:49:17;244.98;;;230.88;;
16387;SDS011;8303;53.446;9.988;2022-08-19T13:51:45;301.52;;;284.52;;
16387;SDS011;8303;53.446;9.988;2022-08-19T13:54:12;408.95;;;384.85;;
16387;SDS011;8303;53.446;9.988;2022-08-19T13:56:41;264.20;;;249.30;;
16387;SDS011;8303;53.446;9.988;2022-08-19T13:59:11;244.75;;;231.02;;
16387;SDS011;8303;53.446;9.988;2022-08-19T14:01:42;360.15;;;339.40;;
16387;SDS011;8303;53.446;9.988;2022-08-19T14:04:10;373.52;;;351.88;;
16387;SDS011;8303;53.446;9.988;2022-08-19T14:06:39;452.25;;;425.60;;
16387;SDS011;8303;53.446;9.988;2022-08-19T14:09:06;514.80;;;483.17;;
16387;SDS011;8303;53.446;9.988;2022-08-19T14:11:33;589.58;;;551.75;;
16387;SDS011;8303;53.446;9.988;2022-08-19T14:14:08;538.55;;;505.08;;
16387;SDS011;8303;53.446;9.988;2022-08-19T14:16:35;468.17;;;440.45;;
16387;SDS011;8303;53.446;9.988;2022-08-19T14:19:03;436.02;;;409.58;;
16387;SDS011;8303;53.446;9.988;2022-08-19T14:21:30;494.70;;;464.58;;
16387;SDS011;8303;53.446;9.988;2022-08-19T14:23:58;406.27;;;382.20;;
16387;SDS011;8303;53.446;9.988;2022-08-19T14:26:26;472.30;;;443.48;;
16387;SDS011;8303;53.446;9.988;2022-08-19T14:28:53;487.95;;;458.67;;
16387;SDS011;8303;53.446;9.988;2022-08-19T14:31:24;397.67;;;374.20;;
16387;SDS011;8303;53.446;9.988;2022-08-19T14:33:51;492.77;;;463.00;;
16387;SDS011;8303;53.446;9.988;2022-08-19T14:36:18;441.85;;;415.05;;
16387;SDS011;8303;53.446;9.988;2022-08-19T14:38:46;443.73;;;417.38;;
16387;SDS011;8303;53.446;9.988;2022-08-19T14:41:16;384.67;;;362.50;;
16387;SDS011;8303;53.446;9.988;2022-08-19T14:43:44;180.10;;;170.00;;
16387;SDS011;8303;53.446;9.988;2022-08-19T14:46:12;24.67;;;22.73;;
16387;SDS011;8303;53.446;9.988;2022-08-19T14:48:42;15.65;;;14.07;;
16387;SDS011;8303;53.446;9.988;2022-08-19T14:51:09;19.55;;;17.77;;
16387;SDS011;8303;53.446;9.988;2022-08-19T14:53:36;18.83;;;17.38;;
16387;SDS011;8303;53.446;9.988;2022-08-19T14:56:07;19.63;;;18.02;;
16387;SDS011;8303;53.446;9.988;2022-08-19T14:58:35;38.92;;;36.33;;
16387;SDS011;8303;53.446;9.988;2022-08-19T15:01:02;88.95;;;84.03;;
16387;SDS011;8303;53.446;9.988;2022-08-19T15:03:30;51.08;;;47.75;;
16387;SDS011;8303;53.446;9.988;2022-08-19T15:05:59;46.65;;;43.67;;
16387;SDS011;8303;53.446;9.988;2022-08-19T15:08:28;31.10;;;28.83;;
16387;SDS011;8303;53.446;9.988;2022-08-19T15:10:56;26.20;;;24.40;;
16387;SDS011;8303;53.446;9.988;2022-08-19T15:13:24;21.10;;;19.58;;
16387;SDS011;8303;53.446;9.988;2022-08-19T15:15:54;16.67;;;15.43;;
16387;SDS011;8303;53.446;9.988;2022-08-19T15:18:22;22.20;;;20.60;;
16387;SDS011;8303;53.446;9.988;2022-08-19T15:20:50;22.65;;;21.05;;
16387;SDS011;8303;53.446;9.988;2022-08-19T15:23:19;25.73;;;23.85;;
16387;SDS011;8303;53.446;9.988;2022-08-19T15:25:47;25.58;;;23.90;;
16387;SDS011;8303;53.446;9.988;2022-08-19T15:28:20;26.38;;;24.65;;
16387;SDS011;8303;53.446;9.988;2022-08-19T15:30:47;37.55;;;35.08;;
16387;SDS011;8303;53.446;9.988;2022-08-19T15:33:15;35.17;;;33.03;;
16387;SDS011;8303;53.446;9.988;2022-08-19T15:35:45;38.45;;;35.90;;
16387;SDS011;8303;53.446;9.988;2022-08-19T15:38:14;33.90;;;31.80;;
16387;SDS011;8303;53.446;9.988;2022-08-19T15:40:46;35.95;;;33.53;;
16387;SDS011;8303;53.446;9.988;2022-08-19T15:43:14;36.10;;;33.88;;
16387;SDS011;8303;53.446;9.988;2022-08-19T15:45:41;35.30;;;32.90;;
16387;SDS011;8303;53.446;9.988;2022-08-19T15:48:09;35.17;;;32.90;;
16387;SDS011;8303;53.446;9.988;2022-08-19T15:50:36;38.38;;;35.85;;
16387;SDS011;8303;53.446;9.988;2022-08-19T15:53:04;38.17;;;35.80;;
16387;SDS011;8303;53.446;9.988;2022-08-19T15:55:34;43.72;;;41.05;;
16387;SDS011;8303;53.446;9.988;2022-08-19T15:58:06;49.08;;;46.15;;
16387;SDS011;8303;53.446;9.988;2022-08-19T16:00:54;54.50;;;51.38;;
16387;SDS011;8303;53.446;9.988;2022-08-19T16:03:38;64.70;;;60.78;;
16387;SDS011;8303;53.446;9.988;2022-08-19T16:06:31;82.93;;;77.78;;
16387;SDS011;8303;53.446;9.988;2022-08-19T16:09:00;82.35;;;77.55;;
16387;SDS011;8303;53.446;9.988;2022-08-19T16:11:30;176.95;;;167.02;;
16387;SDS011;8303;53.446;9.988;2022-08-19T16:14:00;208.02;;;196.63;;
16387;SDS011;8303;53.446;9.988;2022-08-19T16:16:28;42.00;;;39.33;;
16387;SDS011;8303;53.446;9.988;2022-08-19T16:18:58;26.60;;;24.70;;
16387;SDS011;8303;53.446;9.988;2022-08-19T16:21:27;19.92;;;18.50;;
16387;SDS011;8303;53.446;9.988;2022-08-19T16:23:57;22.30;;;20.70;;
16387;SDS011;8303;53.446;9.988;2022-08-19T16:26:25;22.70;;;20.90;;
16387;SDS011;8303;53.446;9.988;2022-08-19T16:28:55;25.95;;;24.10;;
16387;SDS011;8303;53.446;9.988;2022-08-19T16:31:24;26.75;;;24.88;;
16387;SDS011;8303;53.446;9.988;2022-08-19T16:33:52;23.77;;;21.98;;
16387;SDS011;8303;53.446;9.988;2022-08-19T16:36:19;26.60;;;24.70;;
16387;SDS011;8303;53.446;9.988;2022-08-19T16:38:48;29.60;;;27.70;;
16387;SDS011;8303;53.446;9.988;2022-08-19T16:41:15;31.35;;;29.25;;
16387;SDS011;8303;53.446;9.988;2022-08-19T16:43:42;29.42;;;27.63;;
16387;SDS011;8303;53.446;9.988;2022-08-19T16:46:10;25.75;;;24.13;;
16387;SDS011;8303;53.446;9.988;2022-08-19T16:48:40;25.35;;;23.63;;
16387;SDS011;8303;53.446;9.988;2022-08-19T16:51:09;26.48;;;24.52;;
16387;SDS011;8303;53.446;9.988;2022-08-19T16:53:40;25.10;;;23.42;;
16387;SDS011;8303;53.446;9.988;2022-08-19T16:56:09;24.23;;;22.65;;
16387;SDS011;8303;53.446;9.988;2022-08-19T16:58:37;30.75;;;28.88;;
16387;SDS011;8303;53.446;9.988;2022-08-19T17:01:06;26.48;;;24.88;;
16387;SDS011;8303;53.446;9.988;2022-08-19T17:03:36;29.10;;;27.30;;
16387;SDS011;8303;53.446;9.988;2022-08-19T17:06:11;29.65;;;27.52;;
16387;SDS011;8303;53.446;9.988;2022-08-19T17:08:40;24.70;;;23.13;;
16387;SDS011;8303;53.446;9.988;2022-08-19T17:11:07;33.38;;;31.35;;
16387;SDS011;8303;53.446;9.988;2022-08-19T17:13:35;52.42;;;49.38;;
16387;SDS011;8303;53.446;9.988;2022-08-19T17:16:08;38.03;;;35.70;;
16387;SDS011;8303;53.446;9.988;2022-08-19T17:18:35;36.40;;;34.17;;
16387;SDS011;8303;53.446;9.988;2022-08-19T17:21:02;29.75;;;27.90;;
16387;SDS011;8303;53.446;9.988;2022-08-19T17:23:31;35.22;;;33.10;;
16387;SDS011;8303;53.446;9.988;2022-08-19T17:25:58;28.27;;;26.35;;
16387;SDS011;8303;53.446;9.988;2022-08-19T17:28:26;31.27;;;29.15;;
16387;SDS011;8303;53.446;9.988;2022-08-19T17:30:55;37.58;;;35.13;;
16387;SDS011;8303;53.446;9.988;2022-08-19T17:33:22;106.68;;;100.82;;
16387;SDS011;8303;53.446;9.988;2022-08-19T17:35:50;283.02;;;267.27;;
16387;SDS011;8303;53.446;9.988;2022-08-19T17:38:18;402.90;;;379.17;;
16387;SDS011;8303;53.446;9.988;2022-08-19T17:40:52;442.00;;;415.67;;
16387;SDS011;8303;53.446;9.988;2022-08-19T17:43:28;494.67;;;464.27;;
16387;SDS011;8303;53.446;9.988;2022-08-19T17:45:57;591.13;;;552.58;;
16387;SDS011;8303;53.446;9.988;2022-08-19T17:48:27;576.95;;;540.35;;
16387;SDS011;8303;53.446;9.988;2022-08-19T17:50:54;564.80;;;528.50;;
16387;SDS011;8303;53.446;9.988;2022-08-19T17:53:22;477.38;;;448.67;;
16387;SDS011;8303;53.446;9.988;2022-08-19T17:55:51;451.40;;;424.42;;
16387;SDS011;8303;53.446;9.988;2022-08-19T17:58:18;475.40;;;446.65;;
16387;SDS011;8303;53.446;9.988;2022-08-19T18:00:45;500.80;;;469.30;;
16387;SDS011;8303;53.446;9.988;2022-08-19T18:03:15;564.45;;;526.55;;
16387;SDS011;8303;53.446;9.988;2022-08-19T18:05:42;550.90;;;514.20;;
16387;SDS011;8303;53.446;9.988;2022-08-19T18:08:10;476.45;;;446.80;;
16387;SDS011;8303;53.446;9.988;2022-08-19T18:10:37;526.38;;;492.40;;
16387;SDS011;8303;53.446;9.988;2022-08-19T18:13:06;480.38;;;450.63;;
16387;SDS011;8303;53.446;9.988;2022-08-19T18:15:33;479.73;;;450.52;;
16387;SDS011;8303;53.446;9.988;2022-08-19T18:18:01;419.13;;;394.42;;
16387;SDS011;8303;53.446;9.988;2022-08-19T18:20:27;397.52;;;373.77;;
16387;SDS011;8303;53.446;9.988;2022-08-19T18:22:55;329.05;;;310.58;;
16387;SDS011;8303;53.446;9.988;2022-08-19T18:25:26;250.10;;;236.88;;
16387;SDS011;8303;53.446;9.988;2022-08-19T18:27:54;270.08;;;255.18;;
16387;SDS011;8303;53.446;9.988;2022-08-19T18:30:24;241.27;;;228.15;;
16387;SDS011;8303;53.446;9.988;2022-08-19T18:32:55;212.60;;;201.23;;
16387;SDS011;8303;53.446;9.988;2022-08-19T18:35:26;269.77;;;254.68;;
16387;SDS011;8303;53.446;9.988;2022-08-19T18:37:54;372.50;;;350.48;;
16387;SDS011;8303;53.446;9.988;2022-08-19T18:40:23;385.67;;;362.52;;
16387;SDS011;8303;53.446;9.988;2022-08-19T18:43:09;433.13;;;406.45;;
16387;SDS011;8303;53.446;9.988;2022-08-19T18:45:55;518.47;;;484.42;;
16387;SDS011;8303;53.446;9.988;2022-08-19T18:48:39;589.80;;;549.50;;
16387;SDS011;8303;53.446;9.988;2022-08-19T18:51:24;663.80;;;616.58;;
16387;SDS011;8303;53.446;9.988;2022-08-19T18:53:56;730.28;;;676.17;;
16387;SDS011;8303;53.446;9.988;2022-08-19T18:56:24;766.90;;;710.33;;
16387;SDS011;8303;53.446;9.988;2022-08-19T18:58:55;752.92;;;698.65;;
16387;SDS011;8303;53.446;9.988;2022-08-19T19:01:26;753.38;;;697.92;;
16387;SDS011;8303;53.446;9.988;2022-08-19T19:03:59;807.15;;;746.17;;
16387;SDS011;8303;53.446;9.988;2022-08-19T19:06:36;812.40;;;750.90;;
16387;SDS011;8303;53.446;9.988;2022-08-19T19:09:06;800.60;;;741.47;;
16387;SDS011;8303;53.446;9.988;2022-08-19T19:11:36;826.47;;;763.78;;